sensor_id;sensor_type;location;lat;lon;timestamp;temperature;humidity
5429;DHT22;2737;52.386;9.980;2023-03-01T00:01:40;-2.30;99.90
5429;DHT22;2737;52.386;9.980;2023-03-01T00:04:07;-2.30;99.90
5429;DHT22;2737;52.386;9.980;2023-03-01T00:06:34;-2.30;99.90
5429;DHT22;2737;52.386;9.980;2023-03-01T00:09:01;-2.40;99.90
5429;DHT22;2737;52.386;9.980;2023-03-01T00:11:31;-2.40;99.90
5429;DHT22;2737;52.386;9.980;2023-03-01T00:14:00;-2.40;99.90
5429;DHT22;2737;52.386;9.980;2023-03-01T00:16:28;-2.40;99.90
5429;DHT22;2737;52.386;9.980;2023-03-01T00:18:57;-2.40;99.90
5429;DHT22;2737;52.386;9.980;2023-03-01T00:21:25;-2.40;99.90
5429;DHT22;2737;52.386;9.980;2023-03-01T00:23:52;-2.40;99.90
5429;DHT22;2737;52.386;9.980;2023-03-01T00:26:21;-2.50;99.90
5429;DHT22;2737;52.386;9.980;2023-03-01T00:28:50;-2.50;99.90
5429;DHT22;2737;52.386;9.980;2023-03-01T00:31:19;-2.50;99.90
5429;DHT22;2737;52.386;9.980;2023-03-01T00:33:47;-2.50;99.90
5429;DHT22;2737;52.386;9.980;2023-03-01T00:36:15;-2.60;99.90
5429;DHT22;2737;52.386;9.980;2023-03-01T00:38:44;-2.60;99.90
5429;DHT22;2737;52.386;9.980;2023-03-01T00:41:13;-2.60;99.90
5429;DHT22;2737;52.386;9.980;2023-03-01T00:43:41;-2.60;99.90
5429;DHT22;2737;52.386;9.980;2023-03-01T00:46:11;-2.70;99.90
5429;DHT22;2737;52.386;9.980;2023-03-01T00:48:39;-2.80;99.90
5429;DHT22;2737;52.386;9.980;2023-03-01T00:51:07;-2.90;99.90
5429;DHT22;2737;52.386;9.980;2023-03-01T00:53:35;-3.00;99.90
5429;DHT22;2737;52.386;9.980;2023-03-01T00:56:03;-2.90;99.90
5429;DHT22;2737;52.386;9.980;2023-03-01T00:58:30;-2.90;99.90
5429;DHT22;2737;52.386;9.980;2023-03-01T01:00:57;-2.90;99.90
5429;DHT22;2737;52.386;9.980;2023-03-01T01:03:26;-2.90;99.90
5429;DHT22;2737;52.386;9.980;2023-03-01T01:05:53;-2.90;99.90
5429;DHT22;2737;52.386;9.980;2023-03-01T01:08:20;-3.00;99.90
5429;DHT22;2737;52.386;9.980;2023-03-01T01:10:48;-3.10;99.90
5429;DHT22;2737;52.386;9.980;2023-03-01T01:13:15;-3.10;99.90
5429;DHT22;2737;52.386;9.980;2023-03-01T01:15:42;-3.10;99.90
5429;DHT22;2737;52.386;9.980;2023-03-01T01:18:09;-3.10;99.90
5429;DHT22;2737;52.386;9.980;2023-03-01T01:20:37;-3.10;99.90
5429;DHT22;2737;52.386;9.980;2023-03-01T01:23:05;-3.10;99.90
5429;DHT22;2737;52.386;9.980;2023-03-01T01:25:34;-3.10;99.90
5429;DHT22;2737;52.386;9.980;2023-03-01T01:28:02;-3.20;99.90
5429;DHT22;2737;52.386;9.980;2023-03-01T01:30:30;-3.30;99.90
5429;DHT22;2737;52.386;9.980;2023-03-01T01:32:57;-3.30;99.90
5429;DHT22;2737;52.386;9.980;2023-03-01T01:35:24;-3.40;99.90
5429;DHT22;2737;52.386;9.980;2023-03-01T01:37:52;-3.50;99.90
5429;DHT22;2737;52.386;9.980;2023-03-01T01:40:20;-3.50;99.90
5429;DHT22;2737;52.386;9.980;2023-03-01T01:42:47;-3.50;99.90
5429;DHT22;2737;52.386;9.980;2023-03-01T01:45:27;-3.50;99.90
5429;DHT22;2737;52.386;9.980;2023-03-01T01:47:57;-3.50;99.90
5429;DHT22;2737;52.386;9.980;2023-03-01T01:50:25;-3.40;99.90
5429;DHT22;2737;52.386;9.980;2023-03-01T01:53:00;-3.40;99.90
5429;DHT22;2737;52.386;9.980;2023-03-01T01:55:27;-3.40;99.90
5429;DHT22;2737;52.386;9.980;2023-03-01T01:57:57;-3.30;99.90
5429;DHT22;2737;52.386;9.980;2023-03-01T02:00:27;-3.30;99.90
5429;DHT22;2737;52.386;9.980;2023-03-01T02:02:56;-3.40;99.90
5429;DHT22;2737;52.386;9.980;2023-03-01T02:05:28;-3.40;99.90
5429;DHT22;2737;52.386;9.980;2023-03-01T02:08:00;-3.40;99.90
5429;DHT22;2737;52.386;9.980;2023-03-01T02:10:28;-3.40;99.90
5429;DHT22;2737;52.386;9.980;2023-03-01T02:12:56;-3.40;99.90
5429;DHT22;2737;52.386;9.980;2023-03-01T02:15:23;-3.50;99.90
5429;DHT22;2737;52.386;9.980;2023-03-01T02:17:52;-3.70;99.90
5429;DHT22;2737;52.386;9.980;2023-03-01T02:20:23;-3.70;99.90
5429;DHT22;2737;52.386;9.980;2023-03-01T02:22:54;-3.80;99.90
5429;DHT22;2737;52.386;9.980;2023-03-01T02:25:38;-3.80;99.90
5429;DHT22;2737;52.386;9.980;2023-03-01T02:28:18;-3.90;99.90
5429;DHT22;2737;52.386;9.980;2023-03-01T02:30:47;-3.80;99.90
5429;DHT22;2737;52.386;9.980;2023-03-01T02:33:29;-3.80;99.90
5429;DHT22;2737;52.386;9.980;2023-03-01T02:35:58;-3.70;99.90
5429;DHT22;2737;52.386;9.980;2023-03-01T02:38:28;-3.50;99.90
5429;DHT22;2737;52.386;9.980;2023-03-01T02:40:56;-3.50;99.90
5429;DHT22;2737;52.386;9.980;2023-03-01T02:43:30;-3.50;99.90
5429;DHT22;2737;52.386;9.980;2023-03-01T02:45:59;-3.60;99.90
5429;DHT22;2737;52.386;9.980;2023-03-01T02:48:43;-3.60;99.90
5429;DHT22;2737;52.386;9.980;2023-03-01T02:51:18;-3.70;99.90
5429;DHT22;2737;52.386;9.980;2023-03-01T02:53:56;-3.70;99.90
5429;DHT22;2737;52.386;9.980;2023-03-01T02:56:26;-3.70;99.90
5429;DHT22;2737;52.386;9.980;2023-03-01T02:58:54;-3.70;99.90
5429;DHT22;2737;52.386;9.980;2023-03-01T03:01:27;-3.80;99.90
5429;DHT22;2737;52.386;9.980;2023-03-01T03:04:02;-3.80;99.90
5429;DHT22;2737;52.386;9.980;2023-03-01T03:06:29;-3.80;99.90
5429;DHT22;2737;52.386;9.980;2023-03-01T03:08:56;-3.90;99.90
5429;DHT22;2737;52.386;9.980;2023-03-01T03:11:24;-3.80;99.90
5429;DHT22;2737;52.386;9.980;2023-03-01T03:13:51;-3.80;99.90
5429;DHT22;2737;52.386;9.980;2023-03-01T03:16:19;-3.80;99.90
5429;DHT22;2737;52.386;9.980;2023-03-01T03:18:47;-3.80;99.90
5429;DHT22;2737;52.386;9.980;2023-03-01T03:21:14;-3.80;99.90
5429;DHT22;2737;52.386;9.980;2023-03-01T03:23:42;-3.80;99.90
5429;DHT22;2737;52.386;9.980;2023-03-01T03:26:09;-3.80;99.90
5429;DHT22;2737;52.386;9.980;2023-03-01T03:28:40;-3.80;99.90
5429;DHT22;2737;52.386;9.980;2023-03-01T03:31:08;-3.90;99.90
5429;DHT22;2737;52.386;9.980;2023-03-01T03:33:37;-3.90;99.90
5429;DHT22;2737;52.386;9.980;2023-03-01T03:36:05;-3.90;99.90
5429;DHT22;2737;52.386;9.980;2023-03-01T03:38:32;-3.90;99.90
5429;DHT22;2737;52.386;9.980;2023-03-01T03:41:01;-4.00;99.90
5429;DHT22;2737;52.386;9.980;2023-03-01T03:43:30;-4.00;99.90
5429;DHT22;2737;52.386;9.980;2023-03-01T03:45:58;-4.00;99.90
5429;DHT22;2737;52.386;9.980;2023-03-01T03:48:25;-4.00;99.90
5429;DHT22;2737;52.386;9.980;2023-03-01T03:50:55;-4.00;99.90
5429;DHT22;2737;52.386;9.980;2023-03-01T03:53:25;-4.10;99.90
5429;DHT22;2737;52.386;9.980;2023-03-01T03:55:52;-4.10;99.90
5429;DHT22;2737;52.386;9.980;2023-03-01T03:58:21;-4.10;99.90
5429;DHT22;2737;52.386;9.980;2023-03-01T04:00:50;-4.10;99.90
5429;DHT22;2737;52.386;9.980;2023-03-01T04:03:19;-4.10;99.90
5429;DHT22;2737;52.386;9.980;2023-03-01T04:05:47;-4.10;99.90
5429;DHT22;2737;52.386;9.980;2023-03-01T04:08:17;-4.10;99.90
5429;DHT22;2737;52.386;9.980;2023-03-01T04:10:47;-4.10;99.90
5429;DHT22;2737;52.386;9.980;2023-03-01T04:13:17;-4.20;99.90
5429;DHT22;2737;52.386;9.980;2023-03-01T04:15:45;-4.20;99.90
5429;DHT22;2737;52.386;9.980;2023-03-01T04:18:14;-4.20;99.90
5429;DHT22;2737;52.386;9.980;2023-03-01T04:20:41;-4.30;99.90
5429;DHT22;2737;52.386;9.980;2023-03-01T04:23:12;-4.30;99.90
5429;DHT22;2737;52.386;9.980;2023-03-01T04:25:46;-4.30;99.90
5429;DHT22;2737;52.386;9.980;2023-03-01T04:28:15;-4.20;99.90
5429;DHT22;2737;52.386;9.980;2023-03-01T04:30:42;-4.20;99.90
5429;DHT22;2737;52.386;9.980;2023-03-01T04:33:10;-4.20;99.90
5429;DHT22;2737;52.386;9.980;2023-03-01T04:35:37;-4.30;99.90
5429;DHT22;2737;52.386;9.980;2023-03-01T04:38:06;-4.30;99.90
5429;DHT22;2737;52.386;9.980;2023-03-01T04:40:34;-4.30;99.90
5429;DHT22;2737;52.386;9.980;2023-03-01T04:43:02;-4.40;99.90
5429;DHT22;2737;52.386;9.980;2023-03-01T04:45:31;-4.50;99.90
5429;DHT22;2737;52.386;9.980;2023-03-01T04:48:00;-4.60;99.90
5429;DHT22;2737;52.386;9.980;2023-03-01T04:50:27;-4.60;99.90
5429;DHT22;2737;52.386;9.980;2023-03-01T04:52:54;-4.50;99.90
5429;DHT22;2737;52.386;9.980;2023-03-01T04:55:24;-4.50;99.90
5429;DHT22;2737;52.386;9.980;2023-03-01T04:57:52;-4.50;99.90
5429;DHT22;2737;52.386;9.980;2023-03-01T05:00:22;-4.50;99.90
5429;DHT22;2737;52.386;9.980;2023-03-01T05:02:50;-4.50;99.90
5429;DHT22;2737;52.386;9.980;2023-03-01T05:05:24;-4.60;99.90
5429;DHT22;2737;52.386;9.980;2023-03-01T05:07:53;-4.60;99.90
5429;DHT22;2737;52.386;9.980;2023-03-01T05:10:20;-4.50;99.90
5429;DHT22;2737;52.386;9.980;2023-03-01T05:12:47;-4.50;99.90
5429;DHT22;2737;52.386;9.980;2023-03-01T05:15:14;-4.50;99.90
5429;DHT22;2737;52.386;9.980;2023-03-01T05:17:43;-4.50;99.90
5429;DHT22;2737;52.386;9.980;2023-03-01T05:20:11;-4.50;99.90
5429;DHT22;2737;52.386;9.980;2023-03-01T05:22:38;-4.50;99.90
5429;DHT22;2737;52.386;9.980;2023-03-01T05:25:06;-4.60;99.90
5429;DHT22;2737;52.386;9.980;2023-03-01T05:27:34;-4.60;99.90
5429;DHT22;2737;52.386;9.980;2023-03-01T05:30:02;-4.60;99.90
5429;DHT22;2737;52.386;9.980;2023-03-01T05:32:40;-4.70;99.90
5429;DHT22;2737;52.386;9.980;2023-03-01T05:35:10;-4.70;99.90
5429;DHT22;2737;52.386;9.980;2023-03-01T05:37:42;-4.70;99.90
5429;DHT22;2737;52.386;9.980;2023-03-01T05:40:11;-4.70;99.90
5429;DHT22;2737;52.386;9.980;2023-03-01T05:42:43;-4.70;99.90
5429;DHT22;2737;52.386;9.980;2023-03-01T05:45:11;-4.70;99.90
5429;DHT22;2737;52.386;9.980;2023-03-01T05:47:39;-4.70;99.90
5429;DHT22;2737;52.386;9.980;2023-03-01T05:50:12;-4.70;99.90
5429;DHT22;2737;52.386;9.980;2023-03-01T05:52:39;-4.70;99.90
5429;DHT22;2737;52.386;9.980;2023-03-01T05:55:07;-4.70;99.90
5429;DHT22;2737;52.386;9.980;2023-03-01T05:57:34;-4.60;99.90
5429;DHT22;2737;52.386;9.980;2023-03-01T06:00:02;-4.60;99.90
5429;DHT22;2737;52.386;9.980;2023-03-01T06:02:29;-4.70;99.90
5429;DHT22;2737;52.386;9.980;2023-03-01T06:04:56;-4.60;99.90
5429;DHT22;2737;52.386;9.980;2023-03-01T06:07:25;-4.60;99.90
5429;DHT22;2737;52.386;9.980;2023-03-01T06:09:52;-4.60;99.90
5429;DHT22;2737;52.386;9.980;2023-03-01T06:12:19;-4.70;99.90
5429;DHT22;2737;52.386;9.980;2023-03-01T06:14:46;-4.70;99.90
5429;DHT22;2737;52.386;9.980;2023-03-01T06:17:13;-4.80;99.90
5429;DHT22;2737;52.386;9.980;2023-03-01T06:19:41;-4.80;99.90
5429;DHT22;2737;52.386;9.980;2023-03-01T06:22:08;-4.80;99.90
5429;DHT22;2737;52.386;9.980;2023-03-01T06:24:36;-4.70;99.90
5429;DHT22;2737;52.386;9.980;2023-03-01T06:27:03;-4.70;99.90
5429;DHT22;2737;52.386;9.980;2023-03-01T06:29:30;-4.60;99.90
5429;DHT22;2737;52.386;9.980;2023-03-01T06:31:58;-4.60;99.90
5429;DHT22;2737;52.386;9.980;2023-03-01T06:34:25;-4.50;99.90
5429;DHT22;2737;52.386;9.980;2023-03-01T06:36:52;-4.60;99.90
5429;DHT22;2737;52.386;9.980;2023-03-01T06:39:19;-4.50;99.90
5429;DHT22;2737;52.386;9.980;2023-03-01T06:41:47;-4.40;99.90
5429;DHT22;2737;52.386;9.980;2023-03-01T06:44:14;-4.30;99.90
5429;DHT22;2737;52.386;9.980;2023-03-01T06:46:41;-4.30;99.90
5429;DHT22;2737;52.386;9.980;2023-03-01T06:49:08;-4.30;99.90
5429;DHT22;2737;52.386;9.980;2023-03-01T06:51:36;-4.20;99.90
5429;DHT22;2737;52.386;9.980;2023-03-01T06:54:04;-4.10;99.90
5429;DHT22;2737;52.386;9.980;2023-03-01T06:56:31;-4.10;99.90
5429;DHT22;2737;52.386;9.980;2023-03-01T06:59:00;-4.00;99.90
5429;DHT22;2737;52.386;9.980;2023-03-01T07:01:28;-3.90;99.90
5429;DHT22;2737;52.386;9.980;2023-03-01T07:03:55;-3.80;99.90
5429;DHT22;2737;52.386;9.980;2023-03-01T07:06:23;-3.70;99.90
5429;DHT22;2737;52.386;9.980;2023-03-01T07:08:50;-3.50;99.90
5429;DHT22;2737;52.386;9.980;2023-03-01T07:11:17;-3.40;99.90
5429;DHT22;2737;52.386;9.980;2023-03-01T07:13:44;-3.30;99.90
5429;DHT22;2737;52.386;9.980;2023-03-01T07:16:12;-3.30;99.90
5429;DHT22;2737;52.386;9.980;2023-03-01T07:18:39;-3.20;99.90
5429;DHT22;2737;52.386;9.980;2023-03-01T07:21:07;-3.20;99.90
5429;DHT22;2737;52.386;9.980;2023-03-01T07:23:34;-3.10;99.90
5429;DHT22;2737;52.386;9.980;2023-03-01T07:26:02;-3.00;99.90
5429;DHT22;2737;52.386;9.980;2023-03-01T07:28:29;-2.90;99.90
5429;DHT22;2737;52.386;9.980;2023-03-01T07:31:01;-2.80;99.90
5429;DHT22;2737;52.386;9.980;2023-03-01T07:33:30;-2.80;99.90
5429;DHT22;2737;52.386;9.980;2023-03-01T07:35:57;-2.80;99.90
5429;DHT22;2737;52.386;9.980;2023-03-01T07:38:25;-2.60;99.90
5429;DHT22;2737;52.386;9.980;2023-03-01T07:40:52;-2.50;99.90
5429;DHT22;2737;52.386;9.980;2023-03-01T07:43:19;-2.40;99.90
5429;DHT22;2737;52.386;9.980;2023-03-01T07:45:47;-2.40;99.90
5429;DHT22;2737;52.386;9.980;2023-03-01T07:48:14;-2.30;99.90
5429;DHT22;2737;52.386;9.980;2023-03-01T07:50:42;-2.30;99.90
5429;DHT22;2737;52.386;9.980;2023-03-01T07:53:09;-2.20;99.90
5429;DHT22;2737;52.386;9.980;2023-03-01T07:55:37;-2.00;99.90
5429;DHT22;2737;52.386;9.980;2023-03-01T07:58:04;-1.90;99.90
5429;DHT22;2737;52.386;9.980;2023-03-01T08:00:31;-1.90;99.90
5429;DHT22;2737;52.386;9.980;2023-03-01T08:02:59;-1.80;99.90
5429;DHT22;2737;52.386;9.980;2023-03-01T08:05:27;-1.70;99.90
5429;DHT22;2737;52.386;9.980;2023-03-01T08:07:55;-1.50;99.90
5429;DHT22;2737;52.386;9.980;2023-03-01T08:10:22;-1.40;99.90
5429;DHT22;2737;52.386;9.980;2023-03-01T08:12:51;-1.30;99.90
5429;DHT22;2737;52.386;9.980;2023-03-01T08:15:19;-1.30;99.90
5429;DHT22;2737;52.386;9.980;2023-03-01T08:17:49;-1.20;99.90
5429;DHT22;2737;52.386;9.980;2023-03-01T08:20:16;-1.10;99.90
5429;DHT22;2737;52.386;9.980;2023-03-01T08:22:43;-1.00;99.90
5429;DHT22;2737;52.386;9.980;2023-03-01T08:25:12;-1.00;99.90
5429;DHT22;2737;52.386;9.980;2023-03-01T08:27:39;-0.90;99.90
5429;DHT22;2737;52.386;9.980;2023-03-01T08:30:07;-0.80;99.90
5429;DHT22;2737;52.386;9.980;2023-03-01T08:32:38;-0.70;99.90
5429;DHT22;2737;52.386;9.980;2023-03-01T08:35:05;-0.60;99.90
5429;DHT22;2737;52.386;9.980;2023-03-01T08:37:33;-0.50;99.90
5429;DHT22;2737;52.386;9.980;2023-03-01T08:40:00;-0.40;99.90
5429;DHT22;2737;52.386;9.980;2023-03-01T08:42:30;-0.30;99.90
5429;DHT22;2737;52.386;9.980;2023-03-01T08:44:57;-0.20;99.90
5429;DHT22;2737;52.386;9.980;2023-03-01T08:47:24;-0.10;99.90
5429;DHT22;2737;52.386;9.980;2023-03-01T08:49:51;0.00;99.90
5429;DHT22;2737;52.386;9.980;2023-03-01T08:52:19;0.10;99.90
5429;DHT22;2737;52.386;9.980;2023-03-01T08:54:48;0.30;99.90
5429;DHT22;2737;52.386;9.980;2023-03-01T08:57:15;0.40;99.90
5429;DHT22;2737;52.386;9.980;2023-03-01T08:59:43;0.40;99.90
5429;DHT22;2737;52.386;9.980;2023-03-01T09:02:14;0.50;99.90
5429;DHT22;2737;52.386;9.980;2023-03-01T09:04:41;0.50;99.90
5429;DHT22;2737;52.386;9.980;2023-03-01T09:07:08;0.70;99.90
5429;DHT22;2737;52.386;9.980;2023-03-01T09:09:35;0.70;99.90
5429;DHT22;2737;52.386;9.980;2023-03-01T09:12:03;0.80;99.90
5429;DHT22;2737;52.386;9.980;2023-03-01T09:14:31;0.90;99.90
5429;DHT22;2737;52.386;9.980;2023-03-01T09:16:59;1.00;99.90
5429;DHT22;2737;52.386;9.980;2023-03-01T09:19:28;1.10;99.90
5429;DHT22;2737;52.386;9.980;2023-03-01T09:21:55;1.10;99.90
5429;DHT22;2737;52.386;9.980;2023-03-01T09:24:24;1.20;99.90
5429;DHT22;2737;52.386;9.980;2023-03-01T09:26:53;1.40;99.90
5429;DHT22;2737;52.386;9.980;2023-03-01T09:29:20;1.50;99.90
5429;DHT22;2737;52.386;9.980;2023-03-01T09:31:48;1.60;99.90
5429;DHT22;2737;52.386;9.980;2023-03-01T09:34:16;1.60;99.90
5429;DHT22;2737;52.386;9.980;2023-03-01T09:36:49;1.70;99.90
5429;DHT22;2737;52.386;9.980;2023-03-01T09:39:16;1.70;99.90
5429;DHT22;2737;52.386;9.980;2023-03-01T09:41:47;1.80;99.90
5429;DHT22;2737;52.386;9.980;2023-03-01T09:44:27;1.90;99.90
5429;DHT22;2737;52.386;9.980;2023-03-01T09:46:56;1.90;99.90
5429;DHT22;2737;52.386;9.980;2023-03-01T09:49:26;2.00;99.90
5429;DHT22;2737;52.386;9.980;2023-03-01T09:52:01;2.00;99.90
5429;DHT22;2737;52.386;9.980;2023-03-01T09:54:31;2.00;99.90
5429;DHT22;2737;52.386;9.980;2023-03-01T09:57:17;2.10;99.90
5429;DHT22;2737;52.386;9.980;2023-03-01T10:00:08;2.10;99.90
5429;DHT22;2737;52.386;9.980;2023-03-01T10:02:42;2.20;99.90
5429;DHT22;2737;52.386;9.980;2023-03-01T10:08:26;2.30;99.90
5429;DHT22;2737;52.386;9.980;2023-03-01T10:10:55;2.30;99.90
5429;DHT22;2737;52.386;9.980;2023-03-01T10:13:26;2.40;99.90
5429;DHT22;2737;52.386;9.980;2023-03-01T10:15:56;2.40;99.90
5429;DHT22;2737;52.386;9.980;2023-03-01T10:18:26;2.50;99.90
5429;DHT22;2737;52.386;9.980;2023-03-01T10:20:57;2.50;99.90
5429;DHT22;2737;52.386;9.980;2023-03-01T10:23:26;2.60;99.90
5429;DHT22;2737;52.386;9.980;2023-03-01T10:26:18;2.60;99.90
5429;DHT22;2737;52.386;9.980;2023-03-01T10:29:00;2.70;99.90
5429;DHT22;2737;52.386;9.980;2023-03-01T10:31:37;2.80;99.90
5429;DHT22;2737;52.386;9.980;2023-03-01T10:34:12;2.80;99.90
5429;DHT22;2737;52.386;9.980;2023-03-01T10:36:42;2.90;99.90
5429;DHT22;2737;52.386;9.980;2023-03-01T10:39:15;2.90;99.90
5429;DHT22;2737;52.386;9.980;2023-03-01T10:41:55;2.80;99.90
5429;DHT22;2737;52.386;9.980;2023-03-01T10:44:41;2.80;99.90
5429;DHT22;2737;52.386;9.980;2023-03-01T10:47:27;2.90;99.90
5429;DHT22;2737;52.386;9.980;2023-03-01T10:50:02;3.00;99.90
5429;DHT22;2737;52.386;9.980;2023-03-01T10:52:33;3.00;99.90
5429;DHT22;2737;52.386;9.980;2023-03-01T10:55:04;3.00;99.90
5429;DHT22;2737;52.386;9.980;2023-03-01T10:57:34;3.20;99.90
5429;DHT22;2737;52.386;9.980;2023-03-01T11:00:30;3.20;99.90
5429;DHT22;2737;52.386;9.980;2023-03-01T11:03:11;3.30;99.90
5429;DHT22;2737;52.386;9.980;2023-03-01T11:05:52;3.30;99.90
5429;DHT22;2737;52.386;9.980;2023-03-01T11:08:32;3.30;99.90
5429;DHT22;2737;52.386;9.980;2023-03-01T11:11:22;3.30;99.90
5429;DHT22;2737;52.386;9.980;2023-03-01T11:13:55;3.40;99.90
5429;DHT22;2737;52.386;9.980;2023-03-01T11:16:31;3.40;99.90
5429;DHT22;2737;52.386;9.980;2023-03-01T11:19:13;3.40;99.90
5429;DHT22;2737;52.386;9.980;2023-03-01T11:21:44;3.50;99.90
5429;DHT22;2737;52.386;9.980;2023-03-01T11:24:17;3.50;99.90
5429;DHT22;2737;52.386;9.980;2023-03-01T11:26:50;3.50;99.90
5429;DHT22;2737;52.386;9.980;2023-03-01T11:29:25;3.50;99.90
5429;DHT22;2737;52.386;9.980;2023-03-01T11:31:58;3.50;99.90
5429;DHT22;2737;52.386;9.980;2023-03-01T11:34:36;3.50;99.90
5429;DHT22;2737;52.386;9.980;2023-03-01T11:37:14;3.50;99.90
5429;DHT22;2737;52.386;9.980;2023-03-01T11:39:47;3.50;99.90
5429;DHT22;2737;52.386;9.980;2023-03-01T11:42:20;3.60;99.90
5429;DHT22;2737;52.386;9.980;2023-03-01T11:44:52;3.50;99.90
5429;DHT22;2737;52.386;9.980;2023-03-01T11:47:39;3.60;99.90
5429;DHT22;2737;52.386;9.980;2023-03-01T11:50:16;3.70;99.90
5429;DHT22;2737;52.386;9.980;2023-03-01T11:52:52;3.70;99.90
5429;DHT22;2737;52.386;9.980;2023-03-01T11:55:41;3.60;99.90
5429;DHT22;2737;52.386;9.980;2023-03-01T11:58:25;3.80;99.90
5429;DHT22;2737;52.386;9.980;2023-03-01T12:01:07;3.80;99.90
5429;DHT22;2737;52.386;9.980;2023-03-01T12:03:47;3.80;99.90
5429;DHT22;2737;52.386;9.980;2023-03-01T12:06:47;3.80;99.90
5429;DHT22;2737;52.386;9.980;2023-03-01T12:09:27;3.90;99.90
5429;DHT22;2737;52.386;9.980;2023-03-01T12:12:30;4.00;99.90
5429;DHT22;2737;52.386;9.980;2023-03-01T12:15:33;4.00;99.90
5429;DHT22;2737;52.386;9.980;2023-03-01T12:18:17;4.10;99.90
5429;DHT22;2737;52.386;9.980;2023-03-01T12:20:54;4.00;99.90
5429;DHT22;2737;52.386;9.980;2023-03-01T12:26:29;4.20;99.90
5429;DHT22;2737;52.386;9.980;2023-03-01T12:29:13;4.30;99.90
5429;DHT22;2737;52.386;9.980;2023-03-01T12:34:55;4.30;99.90
5429;DHT22;2737;52.386;9.980;2023-03-01T12:37:36;4.40;99.90
5429;DHT22;2737;52.386;9.980;2023-03-01T12:40:34;4.40;99.90
5429;DHT22;2737;52.386;9.980;2023-03-01T12:43:15;4.50;99.90
5429;DHT22;2737;52.386;9.980;2023-03-01T12:45:58;4.50;99.90
5429;DHT22;2737;52.386;9.980;2023-03-01T12:48:37;4.50;99.90
5429;DHT22;2737;52.386;9.980;2023-03-01T12:51:08;4.50;99.90
5429;DHT22;2737;52.386;9.980;2023-03-01T12:53:39;4.50;99.90
5429;DHT22;2737;52.386;9.980;2023-03-01T12:56:09;4.40;99.90
5429;DHT22;2737;52.386;9.980;2023-03-01T12:58:41;4.40;99.90
5429;DHT22;2737;52.386;9.980;2023-03-01T13:01:19;4.50;99.90
5429;DHT22;2737;52.386;9.980;2023-03-01T13:07:19;4.60;99.90
5429;DHT22;2737;52.386;9.980;2023-03-01T13:09:53;4.70;99.90
5429;DHT22;2737;52.386;9.980;2023-03-01T13:12:46;4.70;99.90
5429;DHT22;2737;52.386;9.980;2023-03-01T13:15:30;4.70;99.90
5429;DHT22;2737;52.386;9.980;2023-03-01T13:18:00;4.70;99.90
5429;DHT22;2737;52.386;9.980;2023-03-01T13:20:33;4.70;99.90
5429;DHT22;2737;52.386;9.980;2023-03-01T13:23:23;4.80;99.90
5429;DHT22;2737;52.386;9.980;2023-03-01T13:26:09;4.80;99.90
5429;DHT22;2737;52.386;9.980;2023-03-01T13:28:47;4.80;99.90
5429;DHT22;2737;52.386;9.980;2023-03-01T13:34:54;4.90;99.90
5429;DHT22;2737;52.386;9.980;2023-03-01T13:37:27;4.90;99.90
5429;DHT22;2737;52.386;9.980;2023-03-01T13:39:58;5.00;99.90
5429;DHT22;2737;52.386;9.980;2023-03-01T13:42:41;5.00;99.90
5429;DHT22;2737;52.386;9.980;2023-03-01T13:45:34;5.10;99.90
5429;DHT22;2737;52.386;9.980;2023-03-01T13:48:08;5.10;99.90
5429;DHT22;2737;52.386;9.980;2023-03-01T13:50:45;5.10;99.90
5429;DHT22;2737;52.386;9.980;2023-03-01T13:53:17;5.10;99.90
5429;DHT22;2737;52.386;9.980;2023-03-01T13:55:47;5.10;99.90
5429;DHT22;2737;52.386;9.980;2023-03-01T13:58:21;5.00;99.90
5429;DHT22;2737;52.386;9.980;2023-03-01T14:00:56;5.00;99.90
5429;DHT22;2737;52.386;9.980;2023-03-01T14:03:23;5.10;99.90
5429;DHT22;2737;52.386;9.980;2023-03-01T14:06:08;5.10;99.90
5429;DHT22;2737;52.386;9.980;2023-03-01T14:08:36;5.20;99.90
5429;DHT22;2737;52.386;9.980;2023-03-01T14:11:24;5.20;99.90
5429;DHT22;2737;52.386;9.980;2023-03-01T14:14:07;5.20;99.90
5429;DHT22;2737;52.386;9.980;2023-03-01T14:16:43;5.20;99.90
5429;DHT22;2737;52.386;9.980;2023-03-01T14:19:16;5.20;99.90
5429;DHT22;2737;52.386;9.980;2023-03-01T14:21:47;5.20;99.90
5429;DHT22;2737;52.386;9.980;2023-03-01T14:24:20;5.30;99.90
5429;DHT22;2737;52.386;9.980;2023-03-01T14:26:47;5.30;99.90
5429;DHT22;2737;52.386;9.980;2023-03-01T14:29:26;5.20;99.90
5429;DHT22;2737;52.386;9.980;2023-03-01T14:31:53;5.30;99.90
5429;DHT22;2737;52.386;9.980;2023-03-01T14:34:22;5.30;99.90
5429;DHT22;2737;52.386;9.980;2023-03-01T14:36:50;5.40;99.90
5429;DHT22;2737;52.386;9.980;2023-03-01T14:39:20;5.50;99.90
5429;DHT22;2737;52.386;9.980;2023-03-01T14:41:51;5.50;99.90
5429;DHT22;2737;52.386;9.980;2023-03-01T14:44:21;5.40;99.90
5429;DHT22;2737;52.386;9.980;2023-03-01T14:46:53;5.40;99.90
5429;DHT22;2737;52.386;9.980;2023-03-01T14:49:25;5.40;99.90
5429;DHT22;2737;52.386;9.980;2023-03-01T14:51:58;5.40;99.90
5429;DHT22;2737;52.386;9.980;2023-03-01T14:54:28;5.40;99.90
5429;DHT22;2737;52.386;9.980;2023-03-01T14:56:59;5.50;99.90
5429;DHT22;2737;52.386;9.980;2023-03-01T14:59:27;5.50;99.90
5429;DHT22;2737;52.386;9.980;2023-03-01T15:01:57;5.50;99.80
5429;DHT22;2737;52.386;9.980;2023-03-01T15:04:25;5.50;99.90
5429;DHT22;2737;52.386;9.980;2023-03-01T15:06:55;5.50;99.90
5429;DHT22;2737;52.386;9.980;2023-03-01T15:09:32;5.50;99.90
5429;DHT22;2737;52.386;9.980;2023-03-01T15:12:14;5.50;99.90
5429;DHT22;2737;52.386;9.980;2023-03-01T15:14:49;5.50;99.90
5429;DHT22;2737;52.386;9.980;2023-03-01T15:17:26;5.50;99.90
5429;DHT22;2737;52.386;9.980;2023-03-01T15:19:55;5.50;99.90
5429;DHT22;2737;52.386;9.980;2023-03-01T15:22:26;5.50;99.70
5429;DHT22;2737;52.386;9.980;2023-03-01T15:24:53;5.50;99.90
5429;DHT22;2737;52.386;9.980;2023-03-01T15:27:22;5.50;99.90
5429;DHT22;2737;52.386;9.980;2023-03-01T15:29:51;5.50;99.90
5429;DHT22;2737;52.386;9.980;2023-03-01T15:32:27;5.50;99.90
5429;DHT22;2737;52.386;9.980;2023-03-01T15:34:55;5.50;99.90
5429;DHT22;2737;52.386;9.980;2023-03-01T15:37:44;5.50;99.90
5429;DHT22;2737;52.386;9.980;2023-03-01T15:40:19;5.50;99.90
5429;DHT22;2737;52.386;9.980;2023-03-01T15:42:47;5.50;99.90
5429;DHT22;2737;52.386;9.980;2023-03-01T15:45:22;5.50;99.90
5429;DHT22;2737;52.386;9.980;2023-03-01T15:47:51;5.50;99.90
5429;DHT22;2737;52.386;9.980;2023-03-01T15:50:21;5.50;99.90
5429;DHT22;2737;52.386;9.980;2023-03-01T15:52:51;5.50;99.90
5429;DHT22;2737;52.386;9.980;2023-03-01T15:55:20;5.50;99.90
5429;DHT22;2737;52.386;9.980;2023-03-01T15:57:48;5.50;99.90
5429;DHT22;2737;52.386;9.980;2023-03-01T16:00:17;5.50;99.90
5429;DHT22;2737;52.386;9.980;2023-03-01T16:02:45;5.40;99.90
5429;DHT22;2737;52.386;9.980;2023-03-01T16:05:21;5.50;99.90
5429;DHT22;2737;52.386;9.980;2023-03-01T16:07:51;5.40;99.90
5429;DHT22;2737;52.386;9.980;2023-03-01T16:10:18;5.40;99.90
5429;DHT22;2737;52.386;9.980;2023-03-01T16:12:46;5.30;99.90
5429;DHT22;2737;52.386;9.980;2023-03-01T16:15:17;5.30;99.90
5429;DHT22;2737;52.386;9.980;2023-03-01T16:17:44;5.20;99.90
5429;DHT22;2737;52.386;9.980;2023-03-01T16:20:12;5.30;99.90
5429;DHT22;2737;52.386;9.980;2023-03-01T16:22:41;5.20;99.90
5429;DHT22;2737;52.386;9.980;2023-03-01T16:25:11;5.20;99.90
5429;DHT22;2737;52.386;9.980;2023-03-01T16:27:38;5.20;99.90
5429;DHT22;2737;52.386;9.980;2023-03-01T16:30:09;5.10;99.90
5429;DHT22;2737;52.386;9.980;2023-03-01T16:32:38;5.00;99.90
5429;DHT22;2737;52.386;9.980;2023-03-01T16:35:06;5.00;99.90
5429;DHT22;2737;52.386;9.980;2023-03-01T16:37:34;5.00;99.90
5429;DHT22;2737;52.386;9.980;2023-03-01T16:40:01;4.90;99.90
5429;DHT22;2737;52.386;9.980;2023-03-01T16:42:33;4.90;99.90
5429;DHT22;2737;52.386;9.980;2023-03-01T16:45:00;4.80;99.90
5429;DHT22;2737;52.386;9.980;2023-03-01T16:47:27;4.80;99.90
5429;DHT22;2737;52.386;9.980;2023-03-01T16:49:54;4.80;99.90
5429;DHT22;2737;52.386;9.980;2023-03-01T16:52:22;4.70;99.90